SRV160M GBYD-GVNP
Flight info
| Callsign | SRV160M |
|---|---|
| Flight time | 1h 7m |
| Altitude | 24000 |
| Route | TURED A602 MOGSA W31 SONVA AREPU1H |
| Aircraft | B738/M-SDE2E3FGHIRWXY/LB1 |
Departure
| Time | 2026-05-05 22:30 |
|---|---|
| Airport | Banjul International Airport (GBYD) |
Arrival
| Time | 2026-05-05 23:38 |
|---|---|
| Airport | Nelson Mandela International Airport (GVNP) |
| Time | Latitude | Longitude | Altitude | Speed | Heading |
|---|---|---|---|---|---|
| 2026-05-05 22:16 | 13.34284 | -16.65368 | 153 ft | 0 kts | 131° |
| 2026-05-05 22:24 | 13.34283 | -16.65367 | 87 ft | 1 kts | 131° |
| 2026-05-05 22:24 | 13.34273 | -16.65355 | 93 ft | 4 kts | 130° |
| 2026-05-05 22:24 | 13.34250 | -16.65336 | 91 ft | 5 kts | 160° |
| 2026-05-05 22:25 | 13.34203 | -16.65363 | 92 ft | 9 kts | 219° |
| 2026-05-05 22:25 | 13.34147 | -16.65376 | 92 ft | 9 kts | 150° |
| 2026-05-05 22:25 | 13.34103 | -16.65332 | 90 ft | 9 kts | 133° |
| 2026-05-05 22:25 | 13.34060 | -16.65282 | 90 ft | 10 kts | 131° |
| 2026-05-05 22:26 | 13.34010 | -16.65222 | 90 ft | 12 kts | 130° |
| 2026-05-05 22:26 | 13.33939 | -16.65198 | 90 ft | 12 kts | 206° |
| 2026-05-05 22:26 | 13.33875 | -16.65252 | 89 ft | 15 kts | 220° |
| 2026-05-05 22:26 | 13.33796 | -16.65238 | 89 ft | 15 kts | 129° |
| 2026-05-05 22:27 | 13.33704 | -16.65125 | 89 ft | 21 kts | 129° |
| 2026-05-05 22:27 | 13.33594 | -16.64995 | 87 ft | 29 kts | 131° |
| 2026-05-05 22:27 | 13.33461 | -16.64838 | 88 ft | 31 kts | 131° |
| 2026-05-05 22:27 | 13.33312 | -16.64662 | 90 ft | 32 kts | 131° |
| 2026-05-05 22:28 | 13.33166 | -16.64488 | 90 ft | 32 kts | 131° |
| 2026-05-05 22:28 | 13.33022 | -16.64316 | 90 ft | 31 kts | 130° |
| 2026-05-05 22:28 | 13.32891 | -16.64158 | 89 ft | 21 kts | 123° |
| 2026-05-05 22:28 | 13.32880 | -16.64013 | 90 ft | 20 kts | 92° |
| 2026-05-05 22:29 | 13.32784 | -16.63945 | 88 ft | 20 kts | 188° |
| 2026-05-05 22:29 | 13.32735 | -16.63981 | 90 ft | 5 kts | 285° |
| 2026-05-05 22:29 | 13.32754 | -16.64001 | 90 ft | 3 kts | 321° |
| 2026-05-05 22:29 | 13.32808 | -16.64061 | 89 ft | 39 kts | 311° |
| 2026-05-05 22:30 | 13.33162 | -16.64482 | 89 ft | 115 kts | 310° |
| 2026-05-05 22:30 | 13.33827 | -16.65276 | 110 ft | 175 kts | 308° |
| 2026-05-05 22:30 | 13.34706 | -16.66289 | 594 ft | 199 kts | 309° |
| 2026-05-05 22:30 | 13.35485 | -16.67412 | 1553 ft | 183 kts | 292° |
| 2026-05-05 22:31 | 13.35544 | -16.68684 | 2440 ft | 188 kts | 253° |
| 2026-05-05 22:31 | 13.35010 | -16.70009 | 2672 ft | 216 kts | 249° |
| 2026-05-05 22:31 | 13.34398 | -16.71498 | 2941 ft | 237 kts | 250° |
| 2026-05-05 22:31 | 13.33763 | -16.73155 | 3248 ft | 257 kts | 250° |
| 2026-05-05 22:32 | 13.33141 | -16.74907 | 3901 ft | 266 kts | 252° |
| 2026-05-05 22:32 | 13.32538 | -16.76729 | 4651 ft | 273 kts | 253° |
| 2026-05-05 22:32 | 13.31951 | -16.78618 | 5294 ft | 283 kts | 253° |
| 2026-05-05 22:32 | 13.31371 | -16.80578 | 5971 ft | 290 kts | 253° |
| 2026-05-05 22:33 | 13.30802 | -16.82576 | 6726 ft | 292 kts | 253° |
| 2026-05-05 22:33 | 13.30244 | -16.84592 | 7484 ft | 295 kts | 253° |
| 2026-05-05 22:33 | 13.29696 | -16.86612 | 8192 ft | 299 kts | 253° |
| 2026-05-05 22:33 | 13.29141 | -16.88687 | 8915 ft | 303 kts | 253° |
| 2026-05-05 22:34 | 13.28584 | -16.90791 | 9660 ft | 307 kts | 253° |
| 2026-05-05 22:34 | 13.28024 | -16.92922 | 10271 ft | 314 kts | 253° |
| 2026-05-05 22:34 | 13.27434 | -16.95168 | 10446 ft | 338 kts | 253° |
| 2026-05-05 22:34 | 13.26805 | -16.97568 | 10616 ft | 359 kts | 253° |
| 2026-05-05 22:35 | 13.26141 | -17.00115 | 10762 ft | 379 kts | 253° |
| 2026-05-05 22:35 | 13.25445 | -17.02786 | 10939 ft | 395 kts | 253° |
| 2026-05-05 22:35 | 13.24730 | -17.05538 | 11365 ft | 402 kts | 253° |
| 2026-05-05 22:35 | 13.24008 | -17.08324 | 11934 ft | 404 kts | 253° |
| 2026-05-05 22:36 | 13.23529 | -17.10173 | 12327 ft | 405 kts | 253° |
| 2026-05-05 22:36 | 13.22802 | -17.12974 | 12890 ft | 407 kts | 253° |
| 2026-05-05 22:36 | 13.22069 | -17.15793 | 13431 ft | 411 kts | 253° |
| 2026-05-05 22:36 | 13.21330 | -17.18633 | 13933 ft | 413 kts | 253° |
| 2026-05-05 22:37 | 13.20587 | -17.21488 | 14440 ft | 415 kts | 253° |
| 2026-05-05 22:37 | 13.19841 | -17.24354 | 14968 ft | 415 kts | 253° |
| 2026-05-05 22:37 | 13.19093 | -17.27223 | 15471 ft | 417 kts | 253° |
| 2026-05-05 22:37 | 13.18342 | -17.30103 | 15950 ft | 419 kts | 253° |
| 2026-05-05 22:38 | 13.17585 | -17.33002 | 16422 ft | 421 kts | 253° |
| 2026-05-05 22:38 | 13.16828 | -17.35902 | 16880 ft | 422 kts | 253° |
| 2026-05-05 22:38 | 13.16066 | -17.38817 | 17353 ft | 424 kts | 254° |
| 2026-05-05 22:38 | 13.15301 | -17.41746 | 17814 ft | 425 kts | 254° |
| 2026-05-05 22:39 | 13.14533 | -17.44682 | 18255 ft | 427 kts | 254° |
| 2026-05-05 22:39 | 13.13772 | -17.47591 | 18625 ft | 428 kts | 254° |
| 2026-05-05 22:39 | 13.12997 | -17.50552 | 19007 ft | 430 kts | 254° |
| 2026-05-05 22:39 | 13.12220 | -17.53520 | 19384 ft | 431 kts | 254° |
| 2026-05-05 22:40 | 13.11442 | -17.56490 | 19753 ft | 432 kts | 254° |
| 2026-05-05 22:40 | 13.10660 | -17.59474 | 20111 ft | 433 kts | 254° |
| 2026-05-05 22:40 | 13.09875 | -17.62466 | 20458 ft | 435 kts | 254° |
| 2026-05-05 22:40 | 13.09087 | -17.65469 | 20813 ft | 436 kts | 254° |
| 2026-05-05 22:41 | 13.08298 | -17.68477 | 21152 ft | 437 kts | 254° |
| 2026-05-05 22:41 | 13.07505 | -17.71494 | 21479 ft | 439 kts | 254° |
| 2026-05-05 22:41 | 13.06710 | -17.74520 | 21799 ft | 440 kts | 254° |
| 2026-05-05 22:41 | 13.05913 | -17.77551 | 22149 ft | 440 kts | 254° |
| 2026-05-05 22:42 | 13.05123 | -17.80556 | 22489 ft | 441 kts | 254° |
| 2026-05-05 22:42 | 13.04321 | -17.83602 | 22810 ft | 442 kts | 254° |
| 2026-05-05 22:42 | 13.03520 | -17.86648 | 23141 ft | 442 kts | 254° |
| 2026-05-05 22:42 | 13.02716 | -17.89698 | 23501 ft | 442 kts | 254° |
| 2026-05-05 22:43 | 13.01913 | -17.92746 | 23779 ft | 443 kts | 254° |
| 2026-05-05 22:43 | 13.01165 | -17.95780 | 23907 ft | 445 kts | 259° |
| 2026-05-05 22:43 | 13.01154 | -17.98975 | 23933 ft | 451 kts | 278° |
| 2026-05-05 22:43 | 13.02000 | -18.02093 | 23928 ft | 458 kts | 291° |
| 2026-05-05 22:44 | 13.03618 | -18.04935 | 23933 ft | 466 kts | 304° |
| 2026-05-05 22:44 | 13.05623 | -18.07562 | 23930 ft | 469 kts | 306° |
| 2026-05-05 22:44 | 13.07682 | -18.10167 | 23929 ft | 472 kts | 307° |
| 2026-05-05 22:44 | 13.09767 | -18.12785 | 23924 ft | 474 kts | 307° |
| 2026-05-05 22:45 | 13.11854 | -18.15417 | 23924 ft | 476 kts | 307° |
| 2026-05-05 22:45 | 13.13932 | -18.18061 | 23926 ft | 477 kts | 306° |
| 2026-05-05 22:45 | 13.16010 | -18.20726 | 23926 ft | 479 kts | 306° |
| 2026-05-05 22:45 | 13.18086 | -18.23406 | 23925 ft | 480 kts | 306° |
| 2026-05-05 22:46 | 13.20164 | -18.26097 | 23924 ft | 481 kts | 306° |
| 2026-05-05 22:46 | 13.22213 | -18.28757 | 23924 ft | 482 kts | 306° |
| 2026-05-05 22:46 | 13.24292 | -18.31458 | 23927 ft | 482 kts | 306° |
| 2026-05-05 22:46 | 13.26372 | -18.34159 | 23926 ft | 483 kts | 306° |
| 2026-05-05 22:47 | 13.28456 | -18.36867 | 23929 ft | 483 kts | 306° |
| 2026-05-05 22:47 | 13.30535 | -18.39568 | 23929 ft | 483 kts | 306° |
| 2026-05-05 22:47 | 13.32617 | -18.42273 | 23928 ft | 482 kts | 306° |
| 2026-05-05 22:47 | 13.34698 | -18.44977 | 23930 ft | 482 kts | 306° |
| 2026-05-05 22:48 | 13.36779 | -18.47681 | 23928 ft | 482 kts | 306° |
| 2026-05-05 22:48 | 13.38859 | -18.50386 | 23933 ft | 481 kts | 306° |
| 2026-05-05 22:48 | 13.40935 | -18.53086 | 23931 ft | 481 kts | 306° |
| 2026-05-05 22:48 | 13.43007 | -18.55782 | 23931 ft | 481 kts | 306° |
| 2026-05-05 22:49 | 13.45078 | -18.58478 | 23926 ft | 480 kts | 306° |
| 2026-05-05 22:49 | 13.47151 | -18.61176 | 23929 ft | 480 kts | 306° |
| 2026-05-05 22:49 | 13.49191 | -18.63833 | 23929 ft | 480 kts | 306° |
| 2026-05-05 22:49 | 13.51253 | -18.66520 | 23942 ft | 479 kts | 305° |
| 2026-05-05 22:50 | 13.53316 | -18.69208 | 23936 ft | 478 kts | 305° |
| 2026-05-05 22:50 | 13.55376 | -18.71893 | 23930 ft | 478 kts | 305° |
| 2026-05-05 22:50 | 13.57437 | -18.74580 | 23930 ft | 477 kts | 305° |
| 2026-05-05 22:50 | 13.59492 | -18.77260 | 23931 ft | 477 kts | 305° |
| 2026-05-05 22:51 | 13.61543 | -18.79937 | 23931 ft | 476 kts | 305° |
| 2026-05-05 22:51 | 13.63589 | -18.82607 | 23933 ft | 476 kts | 305° |
| 2026-05-05 22:51 | 13.65639 | -18.85284 | 23937 ft | 476 kts | 305° |
| 2026-05-05 22:51 | 13.67687 | -18.87959 | 23937 ft | 476 kts | 305° |
| 2026-05-05 22:52 | 13.69735 | -18.90634 | 23937 ft | 476 kts | 305° |
| 2026-05-05 22:52 | 13.71781 | -18.93308 | 23936 ft | 476 kts | 305° |
| 2026-05-05 22:52 | 13.73828 | -18.95985 | 23934 ft | 476 kts | 305° |
| 2026-05-05 22:52 | 13.75850 | -18.98629 | 23937 ft | 476 kts | 305° |
| 2026-05-05 22:53 | 13.77897 | -19.01306 | 23937 ft | 476 kts | 305° |
| 2026-05-05 22:53 | 13.79942 | -19.03981 | 23937 ft | 476 kts | 305° |
| 2026-05-05 22:53 | 13.81991 | -19.06663 | 23937 ft | 476 kts | 305° |
| 2026-05-05 22:53 | 13.84041 | -19.09348 | 23937 ft | 477 kts | 305° |
| 2026-05-05 22:54 | 13.86093 | -19.12036 | 23943 ft | 477 kts | 305° |
| 2026-05-05 22:54 | 13.88143 | -19.14721 | 23943 ft | 477 kts | 305° |
| 2026-05-05 22:54 | 13.90197 | -19.17413 | 23940 ft | 477 kts | 305° |
| 2026-05-05 22:54 | 13.92246 | -19.20100 | 23939 ft | 477 kts | 305° |
| 2026-05-05 22:55 | 13.94291 | -19.22781 | 23937 ft | 477 kts | 305° |
| 2026-05-05 22:55 | 13.96340 | -19.25468 | 23937 ft | 477 kts | 305° |
| 2026-05-05 22:55 | 13.98361 | -19.28120 | 23937 ft | 477 kts | 305° |
| 2026-05-05 22:55 | 14.00408 | -19.30807 | 23937 ft | 477 kts | 305° |
| 2026-05-05 22:56 | 14.02456 | -19.33497 | 23940 ft | 477 kts | 305° |
| 2026-05-05 22:56 | 14.04503 | -19.36186 | 23939 ft | 476 kts | 305° |
| 2026-05-05 22:56 | 14.06550 | -19.38876 | 23939 ft | 476 kts | 305° |
| 2026-05-05 22:56 | 14.08595 | -19.41563 | 23940 ft | 476 kts | 305° |
| 2026-05-05 22:57 | 14.10635 | -19.44245 | 23939 ft | 476 kts | 305° |
| 2026-05-05 22:57 | 14.12677 | -19.46931 | 23946 ft | 476 kts | 305° |
| 2026-05-05 22:57 | 14.14715 | -19.49612 | 23942 ft | 475 kts | 305° |
| 2026-05-05 22:57 | 14.16754 | -19.52295 | 23938 ft | 475 kts | 305° |
| 2026-05-05 22:58 | 14.18789 | -19.54975 | 23944 ft | 475 kts | 305° |
| 2026-05-05 22:58 | 14.20824 | -19.57654 | 23945 ft | 474 kts | 305° |
| 2026-05-05 22:58 | 14.22854 | -19.60329 | 23945 ft | 474 kts | 305° |
| 2026-05-05 22:58 | 14.24887 | -19.63008 | 23945 ft | 473 kts | 305° |
| 2026-05-05 22:59 | 14.26915 | -19.65682 | 23942 ft | 473 kts | 305° |
| 2026-05-05 22:59 | 14.28945 | -19.68359 | 23944 ft | 473 kts | 305° |
| 2026-05-05 22:59 | 14.30945 | -19.70997 | 23946 ft | 473 kts | 305° |
| 2026-05-05 22:59 | 14.32974 | -19.73674 | 23946 ft | 473 kts | 305° |
| 2026-05-05 23:00 | 14.37026 | -19.79023 | 23945 ft | 473 kts | 305° |
| 2026-05-05 23:00 | 14.39054 | -19.81702 | 23949 ft | 473 kts | 305° |
| 2026-05-05 23:00 | 14.41079 | -19.84377 | 23948 ft | 473 kts | 305° |
| 2026-05-05 23:01 | 14.43106 | -19.87057 | 23951 ft | 473 kts | 305° |
| 2026-05-05 23:01 | 14.45130 | -19.89733 | 23948 ft | 473 kts | 305° |
| 2026-05-05 23:01 | 14.47155 | -19.92412 | 23944 ft | 473 kts | 305° |
| 2026-05-05 23:01 | 14.49159 | -19.95062 | 23950 ft | 473 kts | 305° |
| 2026-05-05 23:02 | 14.51183 | -19.97741 | 23951 ft | 473 kts | 305° |
| 2026-05-05 23:02 | 14.53204 | -20.00418 | 23951 ft | 473 kts | 305° |
| 2026-05-05 23:02 | 14.55233 | -20.03105 | 23950 ft | 473 kts | 305° |
| 2026-05-05 23:02 | 14.57253 | -20.05782 | 23950 ft | 473 kts | 305° |
| 2026-05-05 23:03 | 14.59275 | -20.08462 | 23951 ft | 473 kts | 305° |
| 2026-05-05 23:03 | 14.61294 | -20.11138 | 23951 ft | 473 kts | 305° |
| 2026-05-05 23:03 | 14.63313 | -20.13816 | 23951 ft | 473 kts | 305° |
| 2026-05-05 23:03 | 14.65340 | -20.16506 | 23950 ft | 473 kts | 304° |
| 2026-05-05 23:04 | 14.67138 | -20.19321 | 23946 ft | 469 kts | 295° |
| 2026-05-05 23:04 | 14.68413 | -20.22403 | 23959 ft | 465 kts | 286° |
| 2026-05-05 23:04 | 14.69226 | -20.25584 | 23953 ft | 463 kts | 278° |
| 2026-05-05 23:04 | 14.69569 | -20.28879 | 23962 ft | 461 kts | 272° |
| 2026-05-05 23:05 | 14.69813 | -20.32190 | 23947 ft | 461 kts | 272° |
| 2026-05-05 23:05 | 14.70054 | -20.35494 | 23951 ft | 461 kts | 272° |
| 2026-05-05 23:05 | 14.70303 | -20.38803 | 23953 ft | 461 kts | 272° |
| 2026-05-05 23:05 | 14.70560 | -20.42105 | 23958 ft | 462 kts | 273° |
| 2026-05-05 23:06 | 14.70826 | -20.45417 | 23959 ft | 462 kts | 273° |
| 2026-05-05 23:06 | 14.71096 | -20.48723 | 23959 ft | 462 kts | 273° |
| 2026-05-05 23:06 | 14.71369 | -20.52033 | 23958 ft | 462 kts | 273° |
| 2026-05-05 23:06 | 14.71643 | -20.55345 | 23960 ft | 463 kts | 273° |
| 2026-05-05 23:07 | 14.71917 | -20.58656 | 23962 ft | 463 kts | 273° |
| 2026-05-05 23:07 | 14.72187 | -20.61924 | 23960 ft | 463 kts | 273° |
| 2026-05-05 23:07 | 14.72463 | -20.65280 | 23959 ft | 463 kts | 273° |
| 2026-05-05 23:07 | 14.72731 | -20.68556 | 23959 ft | 463 kts | 273° |
| 2026-05-05 23:08 | 14.73003 | -20.71879 | 23962 ft | 464 kts | 273° |
| 2026-05-05 23:08 | 14.73275 | -20.75199 | 23965 ft | 464 kts | 273° |
| 2026-05-05 23:08 | 14.73544 | -20.78511 | 23964 ft | 464 kts | 273° |
| 2026-05-05 23:08 | 14.73815 | -20.81838 | 23964 ft | 464 kts | 273° |
| 2026-05-05 23:09 | 14.74085 | -20.85156 | 23961 ft | 464 kts | 273° |
| 2026-05-05 23:09 | 14.74354 | -20.88478 | 23962 ft | 464 kts | 273° |
| 2026-05-05 23:09 | 14.74623 | -20.91799 | 23962 ft | 464 kts | 273° |
| 2026-05-05 23:09 | 14.74891 | -20.95125 | 23962 ft | 464 kts | 273° |
| 2026-05-05 23:10 | 14.75160 | -20.98453 | 23962 ft | 464 kts | 273° |
| 2026-05-05 23:10 | 14.75428 | -21.01785 | 23966 ft | 464 kts | 273° |
| 2026-05-05 23:10 | 14.75694 | -21.05105 | 23968 ft | 464 kts | 273° |
| 2026-05-05 23:10 | 14.75961 | -21.08432 | 23967 ft | 464 kts | 273° |
| 2026-05-05 23:11 | 14.76227 | -21.11756 | 23964 ft | 464 kts | 273° |
| 2026-05-05 23:11 | 14.76489 | -21.15036 | 23967 ft | 464 kts | 273° |
| 2026-05-05 23:11 | 14.76755 | -21.18363 | 23964 ft | 464 kts | 273° |
| 2026-05-05 23:11 | 14.77020 | -21.21691 | 23964 ft | 465 kts | 273° |
| 2026-05-05 23:12 | 14.77284 | -21.25021 | 23968 ft | 465 kts | 273° |
| 2026-05-05 23:12 | 14.77548 | -21.28347 | 23967 ft | 465 kts | 273° |
| 2026-05-05 23:12 | 14.77812 | -21.31675 | 23967 ft | 465 kts | 273° |
| 2026-05-05 23:12 | 14.78075 | -21.35003 | 23967 ft | 465 kts | 273° |
| 2026-05-05 23:13 | 14.78337 | -21.38331 | 23967 ft | 465 kts | 273° |
| 2026-05-05 23:13 | 14.78600 | -21.41668 | 23973 ft | 465 kts | 273° |
| 2026-05-05 23:13 | 14.78862 | -21.44998 | 23972 ft | 465 kts | 273° |
| 2026-05-05 23:13 | 14.79123 | -21.48331 | 23970 ft | 465 kts | 274° |
| 2026-05-05 23:14 | 14.79381 | -21.51622 | 23969 ft | 465 kts | 274° |
| 2026-05-05 23:14 | 14.79641 | -21.54955 | 23973 ft | 465 kts | 274° |
| 2026-05-05 23:14 | 14.79902 | -21.58289 | 23974 ft | 465 kts | 273° |
| 2026-05-05 23:14 | 14.80161 | -21.61623 | 23972 ft | 465 kts | 273° |
| 2026-05-05 23:15 | 14.80420 | -21.64956 | 23972 ft | 465 kts | 273° |
| 2026-05-05 23:15 | 14.80679 | -21.68294 | 23973 ft | 466 kts | 273° |
| 2026-05-05 23:15 | 14.80938 | -21.71629 | 23972 ft | 466 kts | 273° |
| 2026-05-05 23:15 | 14.81195 | -21.74965 | 23972 ft | 466 kts | 273° |
| 2026-05-05 23:16 | 14.81453 | -21.78300 | 23972 ft | 466 kts | 273° |
| 2026-05-05 23:16 | 14.81710 | -21.81640 | 23975 ft | 466 kts | 274° |
| 2026-05-05 23:16 | 14.81966 | -21.84978 | 23974 ft | 466 kts | 274° |
| 2026-05-05 23:16 | 14.82223 | -21.88318 | 23976 ft | 466 kts | 274° |
| 2026-05-05 23:17 | 14.82479 | -21.91663 | 23975 ft | 466 kts | 273° |
| 2026-05-05 23:17 | 14.82734 | -21.95005 | 23977 ft | 466 kts | 273° |
| 2026-05-05 23:17 | 14.82989 | -21.98344 | 23979 ft | 466 kts | 273° |
| 2026-05-05 23:17 | 14.83243 | -22.01681 | 23978 ft | 466 kts | 273° |
| 2026-05-05 23:18 | 14.83494 | -22.04979 | 23977 ft | 466 kts | 273° |
| 2026-05-05 23:18 | 14.83687 | -22.08321 | 23972 ft | 466 kts | 269° |
| 2026-05-05 23:18 | 14.83507 | -22.11656 | 23982 ft | 465 kts | 264° |
| 2026-05-05 23:18 | 14.83197 | -22.14988 | 23973 ft | 465 kts | 264° |
| 2026-05-05 23:19 | 14.82872 | -22.18310 | 23973 ft | 465 kts | 263° |
| 2026-05-05 23:19 | 14.82551 | -22.21630 | 23978 ft | 465 kts | 264° |
| 2026-05-05 23:19 | 14.82240 | -22.24955 | 23978 ft | 465 kts | 264° |
| 2026-05-05 23:19 | 14.81940 | -22.28289 | 23976 ft | 464 kts | 264° |
| 2026-05-05 23:20 | 14.81649 | -22.31591 | 23478 ft | 459 kts | 264° |
| 2026-05-05 23:20 | 14.81368 | -22.34849 | 22774 ft | 452 kts | 264° |
| 2026-05-05 23:20 | 14.81091 | -22.38064 | 22085 ft | 446 kts | 264° |
| 2026-05-05 23:20 | 14.80819 | -22.41236 | 21409 ft | 441 kts | 264° |
| 2026-05-05 23:21 | 14.80553 | -22.44331 | 20756 ft | 436 kts | 264° |
| 2026-05-05 23:21 | 14.80284 | -22.47436 | 20087 ft | 432 kts | 264° |
| 2026-05-05 23:21 | 14.80017 | -22.50512 | 19401 ft | 429 kts | 264° |
| 2026-05-05 23:21 | 14.79751 | -22.53574 | 18730 ft | 426 kts | 264° |
| 2026-05-05 23:22 | 14.79486 | -22.56617 | 18016 ft | 424 kts | 263° |
| 2026-05-05 23:22 | 14.79222 | -22.59641 | 17288 ft | 421 kts | 263° |
| 2026-05-05 23:22 | 14.78959 | -22.62642 | 16622 ft | 417 kts | 263° |
| 2026-05-05 23:22 | 14.78699 | -22.65617 | 15964 ft | 414 kts | 264° |
| 2026-05-05 23:23 | 14.78440 | -22.68574 | 15280 ft | 411 kts | 263° |
| 2026-05-05 23:23 | 14.78182 | -22.71512 | 14621 ft | 409 kts | 263° |
| 2026-05-05 23:23 | 14.78011 | -22.73448 | 14191 ft | 408 kts | 264° |
| 2026-05-05 23:23 | 14.77754 | -22.76370 | 13500 ft | 407 kts | 263° |
| 2026-05-05 23:24 | 14.77498 | -22.79277 | 12794 ft | 405 kts | 263° |
| 2026-05-05 23:24 | 14.77243 | -22.82167 | 12125 ft | 402 kts | 263° |
| 2026-05-05 23:24 | 14.76990 | -22.85029 | 11471 ft | 399 kts | 263° |
| 2026-05-05 23:24 | 14.76663 | -22.88731 | 11181 ft | 381 kts | 263° |
| 2026-05-05 23:25 | 14.76426 | -22.91415 | 11020 ft | 367 kts | 263° |
| 2026-05-05 23:25 | 14.76271 | -22.93176 | 10908 ft | 359 kts | 263° |
| 2026-05-05 23:25 | 14.76049 | -22.95674 | 10758 ft | 347 kts | 263° |
| 2026-05-05 23:25 | 14.75831 | -22.98125 | 10609 ft | 337 kts | 263° |
| 2026-05-05 23:26 | 14.75620 | -23.00495 | 10468 ft | 326 kts | 263° |
| 2026-05-05 23:26 | 14.75414 | -23.02800 | 10334 ft | 317 kts | 263° |
| 2026-05-05 23:26 | 14.75215 | -23.05036 | 10203 ft | 308 kts | 263° |
| 2026-05-05 23:26 | 14.75021 | -23.07206 | 10075 ft | 299 kts | 263° |
| 2026-05-05 23:27 | 14.74831 | -23.09319 | 9891 ft | 293 kts | 263° |
| 2026-05-05 23:27 | 14.74643 | -23.11417 | 9578 ft | 292 kts | 263° |
| 2026-05-05 23:27 | 14.74455 | -23.13500 | 9275 ft | 291 kts | 263° |
| 2026-05-05 23:27 | 14.74268 | -23.15575 | 8973 ft | 289 kts | 263° |
| 2026-05-05 23:28 | 14.74085 | -23.17613 | 8672 ft | 288 kts | 263° |
| 2026-05-05 23:28 | 14.73900 | -23.19669 | 8370 ft | 287 kts | 263° |
| 2026-05-05 23:28 | 14.73715 | -23.21722 | 8049 ft | 286 kts | 263° |
| 2026-05-05 23:28 | 14.73530 | -23.23771 | 7749 ft | 286 kts | 263° |
| 2026-05-05 23:29 | 14.73345 | -23.25818 | 7427 ft | 286 kts | 264° |
| 2026-05-05 23:29 | 14.73161 | -23.27862 | 7116 ft | 286 kts | 264° |
| 2026-05-05 23:29 | 14.72975 | -23.29916 | 6815 ft | 285 kts | 264° |
| 2026-05-05 23:29 | 14.72794 | -23.31922 | 6678 ft | 278 kts | 263° |
| 2026-05-05 23:30 | 14.72615 | -23.33906 | 6419 ft | 276 kts | 264° |
| 2026-05-05 23:30 | 14.72435 | -23.35890 | 5974 ft | 282 kts | 263° |
| 2026-05-05 23:30 | 14.72251 | -23.37916 | 5604 ft | 284 kts | 263° |
| 2026-05-05 23:30 | 14.72066 | -23.39950 | 5289 ft | 284 kts | 264° |
| 2026-05-05 23:31 | 14.71883 | -23.41971 | 5009 ft | 282 kts | 264° |
| 2026-05-05 23:31 | 14.71707 | -23.43910 | 4991 ft | 267 kts | 264° |
| 2026-05-05 23:31 | 14.71538 | -23.45768 | 4884 ft | 253 kts | 265° |
| 2026-05-05 23:31 | 14.71719 | -23.47509 | 4752 ft | 240 kts | 291° |
| 2026-05-05 23:32 | 14.72356 | -23.49072 | 4376 ft | 238 kts | 292° |
| 2026-05-05 23:32 | 14.72971 | -23.50618 | 4192 ft | 226 kts | 292° |
| 2026-05-05 23:32 | 14.73545 | -23.52076 | 4090 ft | 211 kts | 292° |
| 2026-05-05 23:32 | 14.74077 | -23.53428 | 4030 ft | 196 kts | 292° |
| 2026-05-05 23:33 | 14.74593 | -23.54708 | 4021 ft | 193 kts | 298° |
| 2026-05-05 23:33 | 14.75527 | -23.55650 | 3951 ft | 190 kts | 343° |
| 2026-05-05 23:33 | 14.76803 | -23.55605 | 3825 ft | 187 kts | 22° |
| 2026-05-05 23:33 | 14.78032 | -23.55106 | 3573 ft | 191 kts | 21° |
| 2026-05-05 23:34 | 14.79264 | -23.54622 | 3326 ft | 188 kts | 22° |
| 2026-05-05 23:34 | 14.80476 | -23.54129 | 3068 ft | 186 kts | 22° |
| 2026-05-05 23:34 | 14.81656 | -23.53642 | 2824 ft | 183 kts | 22° |
| 2026-05-05 23:34 | 14.82827 | -23.53156 | 2579 ft | 179 kts | 21° |
| 2026-05-05 23:35 | 14.83974 | -23.52679 | 2346 ft | 175 kts | 21° |
| 2026-05-05 23:35 | 14.85078 | -23.52221 | 2108 ft | 166 kts | 22° |
| 2026-05-05 23:35 | 14.86121 | -23.51787 | 1893 ft | 160 kts | 21° |
| 2026-05-05 23:35 | 14.87153 | -23.51359 | 1714 ft | 160 kts | 22° |
| 2026-05-05 23:36 | 14.88180 | -23.50932 | 1475 ft | 156 kts | 21° |
| 2026-05-05 23:36 | 14.89174 | -23.50519 | 1261 ft | 151 kts | 21° |
| 2026-05-05 23:36 | 14.90145 | -23.50116 | 1072 ft | 150 kts | 21° |
| 2026-05-05 23:36 | 14.91105 | -23.49709 | 810 ft | 149 kts | 22° |
| 2026-05-05 23:37 | 14.92073 | -23.49309 | 601 ft | 151 kts | 22° |
| 2026-05-05 23:37 | 14.93060 | -23.48900 | 435 ft | 153 kts | 21° |
| 2026-05-05 23:37 | 14.94021 | -23.48508 | 347 ft | 138 kts | 22° |
| 2026-05-05 23:37 | 14.94696 | -23.48228 | 360 ft | 54 kts | 21° |
| 2026-05-05 23:38 | 14.94907 | -23.48142 | 369 ft | 20 kts | 21° |
| 2026-05-05 23:38 | 14.94961 | -23.48098 | 372 ft | 6 kts | 15° |
| 2026-05-05 23:38 | 14.94968 | -23.48116 | 371 ft | 5 kts | 219° |
| 2026-05-05 23:38 | 14.94900 | -23.48147 | 369 ft | 15 kts | 198° |
| 2026-05-05 23:39 | 14.94773 | -23.48198 | 359 ft | 22 kts | 200° |
| 2026-05-05 23:39 | 14.94627 | -23.48258 | 350 ft | 19 kts | 202° |
| 2026-05-05 23:39 | 14.94554 | -23.48329 | 348 ft | 15 kts | 268° |
| 2026-05-05 23:39 | 14.94578 | -23.48422 | 347 ft | 12 kts | 269° |
| 2026-05-05 23:40 | 14.94523 | -23.48475 | 342 ft | 6 kts | 202° |
| 2026-05-05 23:40 | 14.94517 | -23.48517 | 337 ft | 7 kts | 288° |
| 2026-05-05 23:40 | 14.94525 | -23.48540 | 335 ft | 0 kts | 291° |